sensor_id;sensor_type;location;lat;lon;timestamp;P1;durP1;ratioP1;P2;durP2;ratioP2
28756;SDS011;44294;48.282;14.282;2024-03-29T00:00:27;1.20;;;1.20;;
28756;SDS011;44294;48.282;14.282;2024-03-29T00:03:14;1.20;;;1.20;;
28756;SDS011;44294;48.282;14.282;2024-03-29T00:06:01;1.20;;;1.20;;
28756;SDS011;44294;48.282;14.282;2024-03-29T00:08:49;1.20;;;1.20;;
28756;SDS011;44294;48.282;14.282;2024-03-29T00:11:36;1.20;;;1.20;;
28756;SDS011;44294;48.282;14.282;2024-03-29T00:14:23;1.20;;;1.20;;
28756;SDS011;44294;48.282;14.282;2024-03-29T00:17:12;1.20;;;1.20;;
28756;SDS011;44294;48.282;14.282;2024-03-29T00:19:59;1.30;;;1.30;;
28756;SDS011;44294;48.282;14.282;2024-03-29T00:22:47;1.20;;;1.20;;
28756;SDS011;44294;48.282;14.282;2024-03-29T00:25:34;1.20;;;1.20;;
28756;SDS011;44294;48.282;14.282;2024-03-29T00:28:21;1.20;;;1.20;;
28756;SDS011;44294;48.282;14.282;2024-03-29T00:31:09;1.20;;;1.20;;
28756;SDS011;44294;48.282;14.282;2024-03-29T00:33:56;1.20;;;1.20;;
28756;SDS011;44294;48.282;14.282;2024-03-29T00:36:43;1.20;;;1.20;;
28756;SDS011;44294;48.282;14.282;2024-03-29T00:39:30;1.20;;;1.20;;
28756;SDS011;44294;48.282;14.282;2024-03-29T00:42:18;1.23;;;1.23;;
28756;SDS011;44294;48.282;14.282;2024-03-29T00:45:06;1.20;;;1.20;;
28756;SDS011;44294;48.282;14.282;2024-03-29T00:47:53;1.20;;;1.20;;
28756;SDS011;44294;48.282;14.282;2024-03-29T00:50:41;1.10;;;1.10;;
28756;SDS011;44294;48.282;14.282;2024-03-29T00:53:28;1.20;;;1.20;;
28756;SDS011;44294;48.282;14.282;2024-03-29T00:56:16;1.20;;;1.20;;
28756;SDS011;44294;48.282;14.282;2024-03-29T00:59:03;1.30;;;1.30;;
28756;SDS011;44294;48.282;14.282;2024-03-29T01:01:50;1.20;;;1.20;;
28756;SDS011;44294;48.282;14.282;2024-03-29T01:04:38;1.20;;;1.20;;
28756;SDS011;44294;48.282;14.282;2024-03-29T01:07:26;1.20;;;1.20;;
28756;SDS011;44294;48.282;14.282;2024-03-29T01:10:14;1.20;;;1.20;;
28756;SDS011;44294;48.282;14.282;2024-03-29T01:13:01;1.20;;;1.20;;
28756;SDS011;44294;48.282;14.282;2024-03-29T01:15:48;1.37;;;1.37;;
28756;SDS011;44294;48.282;14.282;2024-03-29T01:18:36;1.17;;;1.17;;
28756;SDS011;44294;48.282;14.282;2024-03-29T01:21:23;1.20;;;1.20;;
28756;SDS011;44294;48.282;14.282;2024-03-29T01:24:10;1.20;;;1.20;;
28756;SDS011;44294;48.282;14.282;2024-03-29T01:26:58;1.20;;;1.20;;
28756;SDS011;44294;48.282;14.282;2024-03-29T01:29:45;1.20;;;1.20;;
28756;SDS011;44294;48.282;14.282;2024-03-29T01:32:32;1.20;;;1.20;;
28756;SDS011;44294;48.282;14.282;2024-03-29T01:35:20;1.20;;;1.20;;
28756;SDS011;44294;48.282;14.282;2024-03-29T01:38:07;1.20;;;1.20;;
28756;SDS011;44294;48.282;14.282;2024-03-29T01:40:54;1.20;;;1.20;;
28756;SDS011;44294;48.282;14.282;2024-03-29T01:43:42;1.20;;;1.20;;
28756;SDS011;44294;48.282;14.282;2024-03-29T01:46:29;1.27;;;1.27;;
28756;SDS011;44294;48.282;14.282;2024-03-29T01:49:16;1.10;;;1.10;;
28756;SDS011;44294;48.282;14.282;2024-03-29T01:52:05;1.20;;;1.20;;
28756;SDS011;44294;48.282;14.282;2024-03-29T01:54:52;1.20;;;1.20;;
28756;SDS011;44294;48.282;14.282;2024-03-29T01:57:40;1.20;;;1.20;;
28756;SDS011;44294;48.282;14.282;2024-03-29T02:00:27;1.10;;;1.10;;
28756;SDS011;44294;48.282;14.282;2024-03-29T02:03:16;1.20;;;1.20;;
28756;SDS011;44294;48.282;14.282;2024-03-29T02:06:03;1.20;;;1.20;;
28756;SDS011;44294;48.282;14.282;2024-03-29T02:08:51;1.10;;;1.10;;
28756;SDS011;44294;48.282;14.282;2024-03-29T02:11:41;1.20;;;1.20;;
28756;SDS011;44294;48.282;14.282;2024-03-29T02:14:28;1.20;;;1.20;;
28756;SDS011;44294;48.282;14.282;2024-03-29T02:17:15;1.20;;;1.20;;
28756;SDS011;44294;48.282;14.282;2024-03-29T02:20:03;1.20;;;1.20;;
28756;SDS011;44294;48.282;14.282;2024-03-29T02:25:41;1.20;;;1.20;;
28756;SDS011;44294;48.282;14.282;2024-03-29T02:28:29;1.20;;;1.20;;
28756;SDS011;44294;48.282;14.282;2024-03-29T02:31:17;1.20;;;1.20;;
28756;SDS011;44294;48.282;14.282;2024-03-29T02:34:04;1.30;;;1.30;;
28756;SDS011;44294;48.282;14.282;2024-03-29T02:36:54;1.20;;;1.20;;
28756;SDS011;44294;48.282;14.282;2024-03-29T02:39:42;1.20;;;1.20;;
28756;SDS011;44294;48.282;14.282;2024-03-29T02:42:30;1.20;;;1.20;;
28756;SDS011;44294;48.282;14.282;2024-03-29T02:45:17;1.20;;;1.20;;
28756;SDS011;44294;48.282;14.282;2024-03-29T02:48:04;1.20;;;1.20;;
28756;SDS011;44294;48.282;14.282;2024-03-29T02:50:52;1.30;;;1.30;;
28756;SDS011;44294;48.282;14.282;2024-03-29T02:53:39;1.30;;;1.30;;
28756;SDS011;44294;48.282;14.282;2024-03-29T02:56:27;1.20;;;1.20;;
28756;SDS011;44294;48.282;14.282;2024-03-29T02:59:14;1.30;;;1.30;;
28756;SDS011;44294;48.282;14.282;2024-03-29T03:02:01;1.20;;;1.20;;
28756;SDS011;44294;48.282;14.282;2024-03-29T03:04:49;1.20;;;1.20;;
28756;SDS011;44294;48.282;14.282;2024-03-29T03:07:36;1.20;;;1.20;;
28756;SDS011;44294;48.282;14.282;2024-03-29T03:10:45;1.20;;;1.20;;
28756;SDS011;44294;48.282;14.282;2024-03-29T03:13:47;1.20;;;1.20;;
28756;SDS011;44294;48.282;14.282;2024-03-29T03:16:35;1.30;;;1.30;;
28756;SDS011;44294;48.282;14.282;2024-03-29T03:19:22;1.20;;;1.20;;
28756;SDS011;44294;48.282;14.282;2024-03-29T03:22:09;1.20;;;1.20;;
28756;SDS011;44294;48.282;14.282;2024-03-29T03:24:57;1.20;;;1.20;;
28756;SDS011;44294;48.282;14.282;2024-03-29T03:27:44;1.20;;;1.20;;
28756;SDS011;44294;48.282;14.282;2024-03-29T03:30:31;1.20;;;1.20;;
28756;SDS011;44294;48.282;14.282;2024-03-29T03:33:19;1.20;;;1.20;;
28756;SDS011;44294;48.282;14.282;2024-03-29T03:36:06;1.30;;;1.30;;
28756;SDS011;44294;48.282;14.282;2024-03-29T03:38:53;1.20;;;1.20;;
28756;SDS011;44294;48.282;14.282;2024-03-29T03:41:41;1.20;;;1.20;;
28756;SDS011;44294;48.282;14.282;2024-03-29T03:44:28;1.20;;;1.20;;
28756;SDS011;44294;48.282;14.282;2024-03-29T03:47:15;1.20;;;1.20;;
28756;SDS011;44294;48.282;14.282;2024-03-29T03:50:03;1.30;;;1.30;;
28756;SDS011;44294;48.282;14.282;2024-03-29T03:52:50;1.30;;;1.30;;
28756;SDS011;44294;48.282;14.282;2024-03-29T03:55:38;1.30;;;1.30;;
28756;SDS011;44294;48.282;14.282;2024-03-29T03:58:25;1.20;;;1.20;;
28756;SDS011;44294;48.282;14.282;2024-03-29T04:01:12;1.20;;;1.20;;
28756;SDS011;44294;48.282;14.282;2024-03-29T04:04:00;1.20;;;1.20;;
28756;SDS011;44294;48.282;14.282;2024-03-29T04:06:47;1.20;;;1.20;;
28756;SDS011;44294;48.282;14.282;2024-03-29T04:09:34;1.20;;;1.20;;
28756;SDS011;44294;48.282;14.282;2024-03-29T04:12:22;1.20;;;1.20;;
28756;SDS011;44294;48.282;14.282;2024-03-29T04:15:10;1.20;;;1.20;;
28756;SDS011;44294;48.282;14.282;2024-03-29T04:17:57;1.20;;;1.20;;
28756;SDS011;44294;48.282;14.282;2024-03-29T04:20:44;1.20;;;1.20;;
28756;SDS011;44294;48.282;14.282;2024-03-29T04:23:32;1.20;;;1.20;;
28756;SDS011;44294;48.282;14.282;2024-03-29T04:26:19;1.20;;;1.20;;
28756;SDS011;44294;48.282;14.282;2024-03-29T04:29:06;1.20;;;1.20;;
28756;SDS011;44294;48.282;14.282;2024-03-29T04:31:53;1.40;;;1.40;;
28756;SDS011;44294;48.282;14.282;2024-03-29T04:34:41;1.20;;;1.20;;
28756;SDS011;44294;48.282;14.282;2024-03-29T04:37:28;1.30;;;1.30;;
28756;SDS011;44294;48.282;14.282;2024-03-29T04:40:15;1.20;;;1.20;;
28756;SDS011;44294;48.282;14.282;2024-03-29T04:43:03;1.20;;;1.20;;
28756;SDS011;44294;48.282;14.282;2024-03-29T04:45:50;1.20;;;1.20;;
28756;SDS011;44294;48.282;14.282;2024-03-29T04:48:38;1.20;;;1.20;;
28756;SDS011;44294;48.282;14.282;2024-03-29T04:51:25;1.20;;;1.20;;
28756;SDS011;44294;48.282;14.282;2024-03-29T04:54:12;1.20;;;1.20;;
28756;SDS011;44294;48.282;14.282;2024-03-29T04:57:00;1.20;;;1.20;;
28756;SDS011;44294;48.282;14.282;2024-03-29T04:59:48;1.20;;;1.20;;
28756;SDS011;44294;48.282;14.282;2024-03-29T05:02:35;1.10;;;1.10;;
28756;SDS011;44294;48.282;14.282;2024-03-29T05:05:24;1.20;;;1.20;;
28756;SDS011;44294;48.282;14.282;2024-03-29T05:08:11;1.20;;;1.20;;
28756;SDS011;44294;48.282;14.282;2024-03-29T05:10:58;1.20;;;1.20;;
28756;SDS011;44294;48.282;14.282;2024-03-29T05:13:46;1.20;;;1.20;;
28756;SDS011;44294;48.282;14.282;2024-03-29T05:16:34;1.20;;;1.20;;
28756;SDS011;44294;48.282;14.282;2024-03-29T05:19:21;1.20;;;1.20;;
28756;SDS011;44294;48.282;14.282;2024-03-29T05:22:08;1.30;;;1.30;;
28756;SDS011;44294;48.282;14.282;2024-03-29T05:24:56;1.20;;;1.20;;
28756;SDS011;44294;48.282;14.282;2024-03-29T05:27:43;1.10;;;1.10;;
28756;SDS011;44294;48.282;14.282;2024-03-29T05:30:30;1.20;;;1.20;;
28756;SDS011;44294;48.282;14.282;2024-03-29T05:33:18;1.20;;;1.20;;
28756;SDS011;44294;48.282;14.282;2024-03-29T05:36:05;1.20;;;1.20;;
28756;SDS011;44294;48.282;14.282;2024-03-29T05:38:54;1.20;;;1.20;;
28756;SDS011;44294;48.282;14.282;2024-03-29T05:41:41;1.20;;;1.20;;
28756;SDS011;44294;48.282;14.282;2024-03-29T05:44:29;1.30;;;1.30;;
28756;SDS011;44294;48.282;14.282;2024-03-29T05:47:16;1.30;;;1.30;;
28756;SDS011;44294;48.282;14.282;2024-03-29T05:50:03;1.37;;;1.30;;
28756;SDS011;44294;48.282;14.282;2024-03-29T05:52:51;1.40;;;1.40;;
28756;SDS011;44294;48.282;14.282;2024-03-29T05:55:38;1.40;;;1.40;;
28756;SDS011;44294;48.282;14.282;2024-03-29T05:58:26;1.40;;;1.40;;
28756;SDS011;44294;48.282;14.282;2024-03-29T06:01:13;1.60;;;1.50;;
28756;SDS011;44294;48.282;14.282;2024-03-29T06:04:00;1.30;;;1.30;;
28756;SDS011;44294;48.282;14.282;2024-03-29T06:06:49;1.30;;;1.30;;
28756;SDS011;44294;48.282;14.282;2024-03-29T06:09:37;1.30;;;1.30;;
28756;SDS011;44294;48.282;14.282;2024-03-29T06:12:24;1.30;;;1.30;;
28756;SDS011;44294;48.282;14.282;2024-03-29T06:15:11;1.30;;;1.30;;
28756;SDS011;44294;48.282;14.282;2024-03-29T06:18:17;1.20;;;1.20;;
28756;SDS011;44294;48.282;14.282;2024-03-29T06:21:04;1.30;;;1.30;;
28756;SDS011;44294;48.282;14.282;2024-03-29T06:23:52;1.20;;;1.20;;
28756;SDS011;44294;48.282;14.282;2024-03-29T06:26:39;1.20;;;1.20;;
28756;SDS011;44294;48.282;14.282;2024-03-29T06:29:27;1.20;;;1.20;;
28756;SDS011;44294;48.282;14.282;2024-03-29T06:32:14;1.27;;;1.27;;
28756;SDS011;44294;48.282;14.282;2024-03-29T06:35:02;1.20;;;1.20;;
28756;SDS011;44294;48.282;14.282;2024-03-29T06:37:50;1.20;;;1.20;;
28756;SDS011;44294;48.282;14.282;2024-03-29T06:40:37;1.10;;;1.10;;
28756;SDS011;44294;48.282;14.282;2024-03-29T06:43:24;1.20;;;1.20;;
28756;SDS011;44294;48.282;14.282;2024-03-29T06:46:12;1.20;;;1.20;;
28756;SDS011;44294;48.282;14.282;2024-03-29T06:49:00;1.20;;;1.20;;
28756;SDS011;44294;48.282;14.282;2024-03-29T06:51:47;1.20;;;1.20;;
28756;SDS011;44294;48.282;14.282;2024-03-29T06:54:34;1.20;;;1.20;;
28756;SDS011;44294;48.282;14.282;2024-03-29T06:57:22;1.20;;;1.20;;
28756;SDS011;44294;48.282;14.282;2024-03-29T07:00:11;1.10;;;1.10;;
28756;SDS011;44294;48.282;14.282;2024-03-29T07:02:58;1.20;;;1.20;;
28756;SDS011;44294;48.282;14.282;2024-03-29T07:05:46;1.20;;;1.20;;
28756;SDS011;44294;48.282;14.282;2024-03-29T07:08:34;1.20;;;1.20;;
28756;SDS011;44294;48.282;14.282;2024-03-29T07:11:21;1.10;;;1.10;;
28756;SDS011;44294;48.282;14.282;2024-03-29T07:14:08;1.20;;;1.20;;
28756;SDS011;44294;48.282;14.282;2024-03-29T07:16:55;1.10;;;1.10;;
28756;SDS011;44294;48.282;14.282;2024-03-29T07:19:43;1.20;;;1.20;;
28756;SDS011;44294;48.282;14.282;2024-03-29T07:22:30;1.10;;;1.10;;
28756;SDS011;44294;48.282;14.282;2024-03-29T07:25:18;1.10;;;1.10;;
28756;SDS011;44294;48.282;14.282;2024-03-29T07:28:05;1.20;;;1.20;;
28756;SDS011;44294;48.282;14.282;2024-03-29T07:30:52;1.20;;;1.20;;
28756;SDS011;44294;48.282;14.282;2024-03-29T07:33:39;1.20;;;1.20;;
28756;SDS011;44294;48.282;14.282;2024-03-29T07:36:27;1.13;;;1.13;;
28756;SDS011;44294;48.282;14.282;2024-03-29T07:39:16;1.17;;;1.17;;
28756;SDS011;44294;48.282;14.282;2024-03-29T07:42:03;1.20;;;1.20;;
28756;SDS011;44294;48.282;14.282;2024-03-29T07:44:51;1.10;;;1.10;;
28756;SDS011;44294;48.282;14.282;2024-03-29T07:47:39;1.20;;;1.20;;
28756;SDS011;44294;48.282;14.282;2024-03-29T07:50:26;1.20;;;1.20;;
28756;SDS011;44294;48.282;14.282;2024-03-29T07:53:14;1.10;;;1.10;;
28756;SDS011;44294;48.282;14.282;2024-03-29T07:56:01;1.10;;;1.10;;
28756;SDS011;44294;48.282;14.282;2024-03-29T07:58:52;1.10;;;1.10;;
28756;SDS011;44294;48.282;14.282;2024-03-29T08:01:39;1.20;;;1.20;;
28756;SDS011;44294;48.282;14.282;2024-03-29T08:04:28;1.10;;;1.10;;
28756;SDS011;44294;48.282;14.282;2024-03-29T08:07:16;1.20;;;1.20;;
28756;SDS011;44294;48.282;14.282;2024-03-29T08:10:03;1.00;;;1.00;;
28756;SDS011;44294;48.282;14.282;2024-03-29T08:12:52;1.20;;;1.20;;
28756;SDS011;44294;48.282;14.282;2024-03-29T08:15:39;1.10;;;1.10;;
28756;SDS011;44294;48.282;14.282;2024-03-29T08:18:27;1.20;;;1.20;;
28756;SDS011;44294;48.282;14.282;2024-03-29T08:21:15;1.20;;;1.20;;
28756;SDS011;44294;48.282;14.282;2024-03-29T08:24:02;1.20;;;1.20;;
28756;SDS011;44294;48.282;14.282;2024-03-29T08:26:50;1.10;;;1.10;;
28756;SDS011;44294;48.282;14.282;2024-03-29T08:29:38;1.10;;;1.10;;
28756;SDS011;44294;48.282;14.282;2024-03-29T08:32:25;1.10;;;1.10;;
28756;SDS011;44294;48.282;14.282;2024-03-29T08:35:12;1.10;;;1.10;;
28756;SDS011;44294;48.282;14.282;2024-03-29T08:38:00;1.07;;;1.07;;
28756;SDS011;44294;48.282;14.282;2024-03-29T08:40:47;1.10;;;1.10;;
28756;SDS011;44294;48.282;14.282;2024-03-29T08:43:36;1.10;;;1.10;;
28756;SDS011;44294;48.282;14.282;2024-03-29T08:46:23;1.00;;;1.00;;
28756;SDS011;44294;48.282;14.282;2024-03-29T08:49:10;1.10;;;1.10;;
28756;SDS011;44294;48.282;14.282;2024-03-29T08:51:58;1.00;;;1.00;;
28756;SDS011;44294;48.282;14.282;2024-03-29T08:54:46;1.00;;;1.00;;
28756;SDS011;44294;48.282;14.282;2024-03-29T08:57:34;1.10;;;1.10;;
28756;SDS011;44294;48.282;14.282;2024-03-29T09:00:21;1.00;;;1.00;;
28756;SDS011;44294;48.282;14.282;2024-03-29T09:03:09;1.10;;;1.10;;
28756;SDS011;44294;48.282;14.282;2024-03-29T09:05:56;1.10;;;1.10;;
28756;SDS011;44294;48.282;14.282;2024-03-29T09:08:43;1.10;;;1.10;;
28756;SDS011;44294;48.282;14.282;2024-03-29T09:11:31;1.00;;;1.00;;
28756;SDS011;44294;48.282;14.282;2024-03-29T09:14:18;1.10;;;1.10;;
28756;SDS011;44294;48.282;14.282;2024-03-29T09:17:06;1.10;;;1.10;;
28756;SDS011;44294;48.282;14.282;2024-03-29T09:19:53;1.07;;;1.07;;
28756;SDS011;44294;48.282;14.282;2024-03-29T09:22:40;1.00;;;1.00;;
28756;SDS011;44294;48.282;14.282;2024-03-29T09:25:28;1.10;;;1.10;;
28756;SDS011;44294;48.282;14.282;2024-03-29T09:28:16;1.00;;;1.00;;
28756;SDS011;44294;48.282;14.282;2024-03-29T09:31:03;1.00;;;1.00;;
28756;SDS011;44294;48.282;14.282;2024-03-29T09:33:51;1.00;;;1.00;;
28756;SDS011;44294;48.282;14.282;2024-03-29T09:36:42;1.00;;;1.00;;
28756;SDS011;44294;48.282;14.282;2024-03-29T09:39:29;1.00;;;1.00;;
28756;SDS011;44294;48.282;14.282;2024-03-29T09:42:17;1.00;;;1.00;;
28756;SDS011;44294;48.282;14.282;2024-03-29T09:45:04;1.00;;;1.00;;
28756;SDS011;44294;48.282;14.282;2024-03-29T09:47:52;1.10;;;1.10;;
28756;SDS011;44294;48.282;14.282;2024-03-29T09:50:40;1.10;;;1.10;;
28756;SDS011;44294;48.282;14.282;2024-03-29T09:53:28;1.10;;;1.10;;
28756;SDS011;44294;48.282;14.282;2024-03-29T09:56:15;1.00;;;1.00;;
28756;SDS011;44294;48.282;14.282;2024-03-29T09:59:03;1.00;;;1.00;;
28756;SDS011;44294;48.282;14.282;2024-03-29T10:01:50;1.50;;;1.00;;
28756;SDS011;44294;48.282;14.282;2024-03-29T10:04:38;1.00;;;1.00;;
28756;SDS011;44294;48.282;14.282;2024-03-29T10:07:26;1.00;;;1.00;;
28756;SDS011;44294;48.282;14.282;2024-03-29T10:10:15;1.00;;;1.00;;
28756;SDS011;44294;48.282;14.282;2024-03-29T10:13:04;1.00;;;1.00;;
28756;SDS011;44294;48.282;14.282;2024-03-29T10:15:52;1.10;;;1.10;;
28756;SDS011;44294;48.282;14.282;2024-03-29T10:18:41;1.00;;;1.00;;
28756;SDS011;44294;48.282;14.282;2024-03-29T10:21:29;1.10;;;1.10;;
28756;SDS011;44294;48.282;14.282;2024-03-29T10:24:17;1.10;;;1.10;;
28756;SDS011;44294;48.282;14.282;2024-03-29T10:27:04;1.10;;;1.10;;
28756;SDS011;44294;48.282;14.282;2024-03-29T10:29:55;1.03;;;1.00;;
28756;SDS011;44294;48.282;14.282;2024-03-29T10:32:43;0.93;;;0.93;;
28756;SDS011;44294;48.282;14.282;2024-03-29T10:35:30;1.00;;;1.00;;
28756;SDS011;44294;48.282;14.282;2024-03-29T10:38:17;1.00;;;1.00;;
28756;SDS011;44294;48.282;14.282;2024-03-29T10:41:05;1.00;;;1.00;;
28756;SDS011;44294;48.282;14.282;2024-03-29T10:43:53;1.00;;;1.00;;
28756;SDS011;44294;48.282;14.282;2024-03-29T10:46:41;1.00;;;1.00;;
28756;SDS011;44294;48.282;14.282;2024-03-29T10:49:29;0.90;;;0.90;;
28756;SDS011;44294;48.282;14.282;2024-03-29T10:52:17;1.00;;;1.00;;
28756;SDS011;44294;48.282;14.282;2024-03-29T10:55:05;0.90;;;0.90;;
28756;SDS011;44294;48.282;14.282;2024-03-29T10:57:53;1.00;;;1.00;;
28756;SDS011;44294;48.282;14.282;2024-03-29T11:00:43;1.00;;;1.00;;
28756;SDS011;44294;48.282;14.282;2024-03-29T11:06:24;1.00;;;1.00;;
28756;SDS011;44294;48.282;14.282;2024-03-29T11:09:13;1.00;;;1.00;;
28756;SDS011;44294;48.282;14.282;2024-03-29T11:12:01;1.00;;;1.00;;
28756;SDS011;44294;48.282;14.282;2024-03-29T11:14:50;1.00;;;1.00;;
28756;SDS011;44294;48.282;14.282;2024-03-29T11:17:37;1.00;;;1.00;;
28756;SDS011;44294;48.282;14.282;2024-03-29T11:20:28;1.00;;;1.00;;
28756;SDS011;44294;48.282;14.282;2024-03-29T11:23:24;0.93;;;0.93;;
28756;SDS011;44294;48.282;14.282;2024-03-29T11:26:12;1.00;;;1.00;;
28756;SDS011;44294;48.282;14.282;2024-03-29T11:29:01;1.00;;;1.00;;
28756;SDS011;44294;48.282;14.282;2024-03-29T11:31:58;1.00;;;1.00;;
28756;SDS011;44294;48.282;14.282;2024-03-29T11:34:45;1.00;;;1.00;;
28756;SDS011;44294;48.282;14.282;2024-03-29T11:37:33;1.00;;;1.00;;
28756;SDS011;44294;48.282;14.282;2024-03-29T11:40:22;0.90;;;0.90;;
28756;SDS011;44294;48.282;14.282;2024-03-29T11:43:09;0.97;;;0.97;;
28756;SDS011;44294;48.282;14.282;2024-03-29T11:45:58;1.00;;;1.00;;
28756;SDS011;44294;48.282;14.282;2024-03-29T11:48:47;0.90;;;0.90;;
28756;SDS011;44294;48.282;14.282;2024-03-29T11:51:40;0.90;;;0.90;;
28756;SDS011;44294;48.282;14.282;2024-03-29T11:54:28;0.90;;;0.90;;
28756;SDS011;44294;48.282;14.282;2024-03-29T11:57:16;0.90;;;0.90;;
28756;SDS011;44294;48.282;14.282;2024-03-29T12:00:03;0.90;;;0.90;;
28756;SDS011;44294;48.282;14.282;2024-03-29T12:02:51;1.00;;;1.00;;
28756;SDS011;44294;48.282;14.282;2024-03-29T12:05:39;0.90;;;0.90;;
28756;SDS011;44294;48.282;14.282;2024-03-29T12:08:35;1.00;;;1.00;;
28756;SDS011;44294;48.282;14.282;2024-03-29T12:11:19;0.90;;;0.90;;
28756;SDS011;44294;48.282;14.282;2024-03-29T12:14:11;0.90;;;0.90;;
28756;SDS011;44294;48.282;14.282;2024-03-29T12:16:55;0.90;;;0.90;;
28756;SDS011;44294;48.282;14.282;2024-03-29T12:19:42;0.90;;;0.90;;
28756;SDS011;44294;48.282;14.282;2024-03-29T12:22:32;1.00;;;1.00;;
28756;SDS011;44294;48.282;14.282;2024-03-29T12:25:20;1.00;;;1.00;;
28756;SDS011;44294;48.282;14.282;2024-03-29T12:28:08;1.00;;;1.00;;
28756;SDS011;44294;48.282;14.282;2024-03-29T12:30:55;0.90;;;0.90;;
28756;SDS011;44294;48.282;14.282;2024-03-29T12:33:50;0.90;;;0.90;;
28756;SDS011;44294;48.282;14.282;2024-03-29T12:36:32;0.90;;;0.90;;
28756;SDS011;44294;48.282;14.282;2024-03-29T12:39:19;1.00;;;1.00;;
28756;SDS011;44294;48.282;14.282;2024-03-29T12:42:07;1.00;;;1.00;;
28756;SDS011;44294;48.282;14.282;2024-03-29T12:44:54;0.90;;;0.90;;
28756;SDS011;44294;48.282;14.282;2024-03-29T12:47:42;0.90;;;0.90;;
28756;SDS011;44294;48.282;14.282;2024-03-29T12:50:30;0.90;;;0.90;;
28756;SDS011;44294;48.282;14.282;2024-03-29T12:53:18;0.90;;;0.90;;
28756;SDS011;44294;48.282;14.282;2024-03-29T12:56:05;0.90;;;0.90;;
28756;SDS011;44294;48.282;14.282;2024-03-29T12:58:52;1.00;;;1.00;;
28756;SDS011;44294;48.282;14.282;2024-03-29T13:01:41;0.90;;;0.90;;
28756;SDS011;44294;48.282;14.282;2024-03-29T13:04:28;0.90;;;0.90;;
28756;SDS011;44294;48.282;14.282;2024-03-29T13:07:16;0.90;;;0.90;;
28756;SDS011;44294;48.282;14.282;2024-03-29T13:10:03;1.00;;;1.00;;
28756;SDS011;44294;48.282;14.282;2024-03-29T13:12:58;1.47;;;1.00;;
28756;SDS011;44294;48.282;14.282;2024-03-29T13:15:46;1.02;;;1.00;;
28756;SDS011;44294;48.282;14.282;2024-03-29T13:18:33;1.02;;;1.02;;
28756;SDS011;44294;48.282;14.282;2024-03-29T13:21:21;1.00;;;1.00;;
28756;SDS011;44294;48.282;14.282;2024-03-29T13:24:08;1.00;;;1.00;;
28756;SDS011;44294;48.282;14.282;2024-03-29T13:26:55;0.90;;;0.90;;
28756;SDS011;44294;48.282;14.282;2024-03-29T13:29:43;0.90;;;0.90;;
28756;SDS011;44294;48.282;14.282;2024-03-29T13:32:30;1.00;;;1.00;;
28756;SDS011;44294;48.282;14.282;2024-03-29T13:35:19;0.90;;;0.90;;
28756;SDS011;44294;48.282;14.282;2024-03-29T13:38:09;1.10;;;1.10;;
28756;SDS011;44294;48.282;14.282;2024-03-29T13:40:57;1.00;;;1.00;;
28756;SDS011;44294;48.282;14.282;2024-03-29T13:43:44;1.00;;;1.00;;
28756;SDS011;44294;48.282;14.282;2024-03-29T13:46:40;1.00;;;1.00;;
28756;SDS011;44294;48.282;14.282;2024-03-29T13:49:28;1.00;;;1.00;;
28756;SDS011;44294;48.282;14.282;2024-03-29T13:52:12;1.10;;;1.10;;
28756;SDS011;44294;48.282;14.282;2024-03-29T13:55:00;1.00;;;1.00;;
28756;SDS011;44294;48.282;14.282;2024-03-29T13:57:49;1.10;;;1.10;;
28756;SDS011;44294;48.282;14.282;2024-03-29T14:00:36;1.10;;;1.10;;
28756;SDS011;44294;48.282;14.282;2024-03-29T14:03:24;1.20;;;1.20;;
28756;SDS011;44294;48.282;14.282;2024-03-29T14:06:12;1.00;;;1.00;;
28756;SDS011;44294;48.282;14.282;2024-03-29T14:09:00;1.10;;;1.10;;
28756;SDS011;44294;48.282;14.282;2024-03-29T14:11:48;1.10;;;1.10;;
28756;SDS011;44294;48.282;14.282;2024-03-29T14:14:35;1.10;;;1.10;;
28756;SDS011;44294;48.282;14.282;2024-03-29T14:17:23;1.15;;;1.15;;
28756;SDS011;44294;48.282;14.282;2024-03-29T14:20:11;1.30;;;1.30;;
28756;SDS011;44294;48.282;14.282;2024-03-29T14:22:58;1.20;;;1.20;;
28756;SDS011;44294;48.282;14.282;2024-03-29T14:25:47;1.20;;;1.20;;
28756;SDS011;44294;48.282;14.282;2024-03-29T14:28:34;1.20;;;1.20;;
28756;SDS011;44294;48.282;14.282;2024-03-29T14:31:22;1.10;;;1.10;;
28756;SDS011;44294;48.282;14.282;2024-03-29T14:34:09;1.25;;;1.15;;
28756;SDS011;44294;48.282;14.282;2024-03-29T14:36:56;1.10;;;1.10;;
28756;SDS011;44294;48.282;14.282;2024-03-29T14:39:44;1.02;;;1.02;;
28756;SDS011;44294;48.282;14.282;2024-03-29T14:42:31;1.00;;;1.00;;
28756;SDS011;44294;48.282;14.282;2024-03-29T14:45:19;0.95;;;0.95;;
28756;SDS011;44294;48.282;14.282;2024-03-29T14:48:06;0.90;;;0.90;;
28756;SDS011;44294;48.282;14.282;2024-03-29T14:50:54;0.90;;;0.90;;
28756;SDS011;44294;48.282;14.282;2024-03-29T14:53:42;0.90;;;0.90;;
28756;SDS011;44294;48.282;14.282;2024-03-29T14:56:32;0.90;;;0.90;;
28756;SDS011;44294;48.282;14.282;2024-03-29T14:59:19;1.00;;;1.00;;
28756;SDS011;44294;48.282;14.282;2024-03-29T15:02:07;0.90;;;0.90;;
28756;SDS011;44294;48.282;14.282;2024-03-29T15:04:54;0.90;;;0.90;;
28756;SDS011;44294;48.282;14.282;2024-03-29T15:07:41;0.90;;;0.90;;
28756;SDS011;44294;48.282;14.282;2024-03-29T15:10:29;0.90;;;0.90;;
28756;SDS011;44294;48.282;14.282;2024-03-29T15:13:18;0.90;;;0.90;;
28756;SDS011;44294;48.282;14.282;2024-03-29T15:16:06;1.00;;;1.00;;
28756;SDS011;44294;48.282;14.282;2024-03-29T15:18:53;0.90;;;0.90;;
28756;SDS011;44294;48.282;14.282;2024-03-29T15:21:42;0.90;;;0.90;;
28756;SDS011;44294;48.282;14.282;2024-03-29T15:24:29;0.90;;;0.90;;
28756;SDS011;44294;48.282;14.282;2024-03-29T15:27:16;0.90;;;0.90;;
28756;SDS011;44294;48.282;14.282;2024-03-29T15:30:15;0.90;;;0.90;;
28756;SDS011;44294;48.282;14.282;2024-03-29T15:33:02;0.90;;;0.90;;
28756;SDS011;44294;48.282;14.282;2024-03-29T15:35:49;0.90;;;0.90;;
28756;SDS011;44294;48.282;14.282;2024-03-29T15:38:37;0.90;;;0.90;;
28756;SDS011;44294;48.282;14.282;2024-03-29T15:41:24;1.00;;;1.00;;
28756;SDS011;44294;48.282;14.282;2024-03-29T15:44:11;1.00;;;1.00;;
28756;SDS011;44294;48.282;14.282;2024-03-29T15:46:59;0.90;;;0.90;;
28756;SDS011;44294;48.282;14.282;2024-03-29T15:49:46;0.90;;;0.90;;
28756;SDS011;44294;48.282;14.282;2024-03-29T15:55:12;0.90;;;0.90;;
28756;SDS011;44294;48.282;14.282;2024-03-29T15:57:59;1.00;;;1.00;;
28756;SDS011;44294;48.282;14.282;2024-03-29T16:00:47;0.90;;;0.90;;
28756;SDS011;44294;48.282;14.282;2024-03-29T16:03:34;1.00;;;1.00;;
28756;SDS011;44294;48.282;14.282;2024-03-29T16:06:21;1.00;;;1.00;;
28756;SDS011;44294;48.282;14.282;2024-03-29T16:09:09;1.00;;;1.00;;
28756;SDS011;44294;48.282;14.282;2024-03-29T16:11:56;1.00;;;1.00;;
28756;SDS011;44294;48.282;14.282;2024-03-29T16:14:44;0.90;;;0.90;;
28756;SDS011;44294;48.282;14.282;2024-03-29T16:17:31;1.00;;;1.00;;
28756;SDS011;44294;48.282;14.282;2024-03-29T16:20:18;1.00;;;1.00;;
28756;SDS011;44294;48.282;14.282;2024-03-29T16:23:05;1.00;;;1.00;;
28756;SDS011;44294;48.282;14.282;2024-03-29T16:25:53;1.00;;;1.00;;
28756;SDS011;44294;48.282;14.282;2024-03-29T16:28:41;1.00;;;1.00;;
28756;SDS011;44294;48.282;14.282;2024-03-29T16:31:29;1.00;;;1.00;;
28756;SDS011;44294;48.282;14.282;2024-03-29T16:34:16;0.90;;;0.90;;
28756;SDS011;44294;48.282;14.282;2024-03-29T16:37:03;1.07;;;1.07;;
28756;SDS011;44294;48.282;14.282;2024-03-29T16:39:51;1.00;;;1.00;;
28756;SDS011;44294;48.282;14.282;2024-03-29T16:42:38;1.00;;;1.00;;